ECG weather

Elizabeth City Regional Airport & Coast Guard Air Station
Elizabeth City, North Carolina, United States

Public forecast

Using degrees Fahrenheit for public forecast. Weather courtesy of forecast.io.

METAR (pilot weather report)

Retrieved 2019/02/21 00:54 UTC (21 minutes ago):

KECG 210054Z 15011KT 8SM OVC003 14/13 A3012 RMK AO2 RAE03B19E32 SLP198 P0000 T01390128

TAF (pilot weather forecast)

Forecast is more than 12 hours old.

Retrieved 2019/02/20 00:24 UTC (1 day ago):

TAF TAF KECG 202320Z 2100/2124 13010KT 4SM BR VCSH BKN005 OVC010 FM210300 19005KT 1 1/2SM BR VCSH OVC003 FM210800 22007KT 4SM BR OVC004 FM211200 24009KT P6SM VCSH OVC006 FM211700 26009KT 6SM -SHRA BKN015 FM212200 30006KT 6SM -SHRA BKN025